createdAt,value
2017-07-29T00:00:20.260Z,16.80
2017-07-29T00:02:49.307Z,16.70
2017-07-29T00:05:17.555Z,16.70
2017-07-29T00:07:46.574Z,16.70
2017-07-29T00:10:14.845Z,16.60
2017-07-29T00:12:43.102Z,16.70
2017-07-29T00:15:11.356Z,16.60
2017-07-29T00:17:39.595Z,16.60
2017-07-29T00:20:07.825Z,16.70
2017-07-29T00:22:36.841Z,16.80
2017-07-29T00:25:05.206Z,16.80
2017-07-29T00:27:33.463Z,17.00
2017-07-29T00:30:01.724Z,17.00
2017-07-29T00:32:29.993Z,16.90
2017-07-29T00:34:58.254Z,16.80
2017-07-29T00:37:26.496Z,16.80
2017-07-29T00:39:54.757Z,16.80
2017-07-29T00:42:22.971Z,16.70
2017-07-29T00:44:51.241Z,16.70
2017-07-29T00:47:19.489Z,16.90
2017-07-29T00:49:47.737Z,16.90
2017-07-29T00:52:16.756Z,16.90
2017-07-29T00:54:45.042Z,16.90
2017-07-29T00:57:13.303Z,17.00
2017-07-29T00:59:42.331Z,17.10
2017-07-29T01:02:10.578Z,17.10
2017-07-29T01:04:39.588Z,17.20
2017-07-29T01:07:07.830Z,17.20
2017-07-29T01:09:36.102Z,17.20
2017-07-29T01:12:04.343Z,17.00
2017-07-29T01:14:32.604Z,17.00
2017-07-29T01:17:00.842Z,16.90
2017-07-29T01:19:29.132Z,16.90
2017-07-29T01:21:58.132Z,16.90
2017-07-29T01:24:26.435Z,16.90
2017-07-29T01:26:54.654Z,16.90
2017-07-29T01:29:22.897Z,16.80
2017-07-29T01:31:52.015Z,16.70
2017-07-29T01:34:20.273Z,16.70
2017-07-29T01:36:48.547Z,16.70
2017-07-29T01:39:17.245Z,16.70
2017-07-29T01:41:45.460Z,16.90
2017-07-29T01:44:13.685Z,17.00
2017-07-29T01:46:41.926Z,17.10
2017-07-29T01:49:10.970Z,17.30
2017-07-29T01:51:39.209Z,17.30
2017-07-29T01:54:07.450Z,17.40
2017-07-29T01:56:36.504Z,17.50
2017-07-29T01:59:04.745Z,17.50
2017-07-29T02:01:33.750Z,17.60
2017-07-29T02:04:02.005Z,17.60
2017-07-29T02:06:30.250Z,17.70
2017-07-29T02:08:58.526Z,17.80
2017-07-29T02:11:26.771Z,17.90
2017-07-29T02:13:55.026Z,17.90
2017-07-29T02:16:24.085Z,17.90
2017-07-29T02:18:52.370Z,17.90
2017-07-29T02:21:20.606Z,17.90
2017-07-29T02:23:48.835Z,17.80
2017-07-29T02:26:17.097Z,17.90
2017-07-29T02:28:45.363Z,17.80
2017-07-29T02:31:13.623Z,17.80
2017-07-29T02:33:41.861Z,17.80
2017-07-29T02:36:10.147Z,17.90
2017-07-29T02:38:39.167Z,17.80
2017-07-29T02:41:07.424Z,17.80
2017-07-29T02:43:35.695Z,17.90
2017-07-29T02:46:04.690Z,18.00
2017-07-29T02:48:32.926Z,18.00
2017-07-29T02:51:01.226Z,18.10
2017-07-29T02:53:29.470Z,18.20
2017-07-29T02:55:57.738Z,18.20
2017-07-29T02:58:25.967Z,18.30
2017-07-29T03:00:54.961Z,18.20
2017-07-29T03:03:23.256Z,18.30
2017-07-29T03:05:51.477Z,18.30
2017-07-29T03:08:19.712Z,18.20
2017-07-29T03:10:47.958Z,18.20
2017-07-29T03:13:16.980Z,18.30
2017-07-29T03:15:45.238Z,18.30
2017-07-29T03:18:13.508Z,18.40
2017-07-29T03:20:41.756Z,18.40
2017-07-29T03:23:10.024Z,18.30
2017-07-29T03:25:38.278Z,18.30
2017-07-29T03:28:06.543Z,18.30
2017-07-29T03:30:34.837Z,18.30
2017-07-29T03:33:03.314Z,18.30
2017-07-29T03:35:31.598Z,18.20
2017-07-29T03:37:59.864Z,18.30
2017-07-29T03:40:28.084Z,18.30
2017-07-29T03:42:56.353Z,18.40
2017-07-29T03:45:24.622Z,18.40
2017-07-29T03:47:52.871Z,18.40
2017-07-29T03:50:21.129Z,18.30
2017-07-29T03:52:49.383Z,18.30
2017-07-29T03:55:18.370Z,18.30
2017-07-29T03:57:46.636Z,18.40
2017-07-29T04:00:14.886Z,18.40
2017-07-29T04:02:43.137Z,18.50
2017-07-29T04:05:11.364Z,18.50
2017-07-29T04:07:39.658Z,18.50
2017-07-29T04:10:08.684Z,18.50
2017-07-29T04:12:36.928Z,18.50
2017-07-29T04:15:05.921Z,18.50
2017-07-29T04:17:34.976Z,18.50
2017-07-29T04:20:03.206Z,18.50
2017-07-29T04:22:32.228Z,18.60
2017-07-29T04:25:00.474Z,18.60
2017-07-29T04:27:29.461Z,18.60
2017-07-29T04:29:58.488Z,18.60
2017-07-29T04:32:26.724Z,18.60
2017-07-29T04:34:54.966Z,18.60
2017-07-29T04:37:23.219Z,18.70
2017-07-29T04:39:51.470Z,18.70
2017-07-29T04:42:20.487Z,18.70
2017-07-29T04:44:48.736Z,18.70
2017-07-29T04:47:17.734Z,18.70
2017-07-29T04:49:46.007Z,18.70
2017-07-29T04:52:15.015Z,18.70
2017-07-29T04:54:43.268Z,18.70
2017-07-29T04:57:11.563Z,18.80
2017-07-29T04:59:39.794Z,18.80
2017-07-29T05:02:08.026Z,18.80
2017-07-29T05:04:36.311Z,18.90
2017-07-29T05:07:05.287Z,18.80
2017-07-29T05:09:34.306Z,18.70
2017-07-29T05:12:02.540Z,18.70
2017-07-29T05:14:30.777Z,18.80
2017-07-29T05:16:59.050Z,18.80
2017-07-29T05:19:27.314Z,18.80
2017-07-29T05:21:55.562Z,18.90
2017-07-29T05:24:23.797Z,18.80
2017-07-29T05:26:52.063Z,18.90
2017-07-29T05:29:20.315Z,18.90
2017-07-29T05:31:49.306Z,19.00
2017-07-29T05:34:17.791Z,19.00
2017-07-29T05:36:46.538Z,19.20
2017-07-29T05:39:14.824Z,19.30
2017-07-29T05:41:43.071Z,19.30
2017-07-29T05:44:11.301Z,19.30
2017-07-29T05:46:39.584Z,19.30
2017-07-29T05:49:07.851Z,19.30
2017-07-29T05:51:36.114Z,19.40
2017-07-29T05:54:05.107Z,19.60
2017-07-29T05:56:34.116Z,19.60
2017-07-29T05:59:03.126Z,19.60
2017-07-29T06:01:31.385Z,19.60
2017-07-29T06:04:00.369Z,19.80
2017-07-29T06:06:29.409Z,19.90
2017-07-29T06:08:57.661Z,19.80
2017-07-29T06:11:26.657Z,20.30
2017-07-29T06:13:54.934Z,20.30
2017-07-29T06:16:23.203Z,20.40
2017-07-29T06:18:51.526Z,20.40
2017-07-29T06:21:19.806Z,20.40
2017-07-29T06:23:48.086Z,20.40
2017-07-29T06:26:16.377Z,20.50
2017-07-29T06:28:45.431Z,20.80
2017-07-29T06:31:13.685Z,20.80
2017-07-29T06:33:42.707Z,20.80
2017-07-29T06:36:11.304Z,20.70
2017-07-29T06:38:39.541Z,20.60
2017-07-29T06:41:08.579Z,20.70
2017-07-29T06:43:36.835Z,20.70
2017-07-29T06:46:05.089Z,20.70
2017-07-29T06:48:33.550Z,20.90
2017-07-29T06:51:02.605Z,20.90
2017-07-29T06:53:30.820Z,20.90
2017-07-29T06:55:59.101Z,21.00
2017-07-29T06:58:27.334Z,20.90
2017-07-29T07:00:55.566Z,20.70
2017-07-29T07:03:24.630Z,21.30
2017-07-29T07:05:52.866Z,21.30
2017-07-29T07:08:21.106Z,21.30
2017-07-29T07:10:49.384Z,21.60
2017-07-29T07:13:18.383Z,21.70
2017-07-29T07:15:47.370Z,21.80
2017-07-29T07:18:16.416Z,22.00
2017-07-29T07:20:44.645Z,22.00
2017-07-29T07:23:13.641Z,21.60
2017-07-29T07:25:42.666Z,21.50
2017-07-29T07:28:10.919Z,21.50
2017-07-29T07:30:39.145Z,21.40
2017-07-29T07:33:07.393Z,21.50
2017-07-29T07:35:35.655Z,21.40
2017-07-29T07:38:04.649Z,21.20
2017-07-29T07:40:32.898Z,21.20
2017-07-29T07:43:01.162Z,21.50
2017-07-29T07:45:29.406Z,21.70
2017-07-29T07:47:57.695Z,21.60
2017-07-29T07:50:25.931Z,21.40
2017-07-29T07:52:54.186Z,21.60
2017-07-29T07:55:22.434Z,21.70
2017-07-29T07:57:50.701Z,21.80
2017-07-29T08:00:18.934Z,21.10
2017-07-29T08:02:47.936Z,21.30
2017-07-29T08:05:16.214Z,21.30
2017-07-29T08:07:44.444Z,21.20
2017-07-29T08:10:12.758Z,21.30
2017-07-29T08:12:41.031Z,21.30
2017-07-29T08:15:09.263Z,21.30
2017-07-29T08:17:37.511Z,21.40
2017-07-29T08:20:05.753Z,21.40
2017-07-29T08:22:34.798Z,21.40
2017-07-29T08:25:03.074Z,21.30
2017-07-29T08:27:31.290Z,21.50
2017-07-29T08:29:59.546Z,21.80
2017-07-29T08:32:27.787Z,22.00
2017-07-29T08:34:56.064Z,22.10
2017-07-29T08:37:25.060Z,22.30
2017-07-29T08:39:53.315Z,22.30
2017-07-29T08:42:22.332Z,22.40
2017-07-29T08:44:50.598Z,22.40
2017-07-29T08:47:18.881Z,22.20
2017-07-29T08:49:47.131Z,22.30
2017-07-29T08:52:16.209Z,22.90
2017-07-29T08:54:44.446Z,22.90
2017-07-29T08:57:12.713Z,22.60
2017-07-29T08:59:40.973Z,22.40
2017-07-29T09:02:09.236Z,22.40
2017-07-29T09:04:38.276Z,22.30
2017-07-29T09:07:06.513Z,22.20
2017-07-29T09:09:34.751Z,22.30
2017-07-29T09:12:03.006Z,22.30
2017-07-29T09:14:31.273Z,22.10
2017-07-29T09:16:59.527Z,22.30
2017-07-29T09:19:27.757Z,22.30
2017-07-29T09:21:56.011Z,22.60
2017-07-29T09:24:24.262Z,22.90
2017-07-29T09:26:52.500Z,22.90
2017-07-29T09:29:20.775Z,23.00
2017-07-29T09:31:49.006Z,22.90
2017-07-29T09:34:17.285Z,23.00
2017-07-29T09:36:45.531Z,22.80
2017-07-29T09:39:13.797Z,22.90
2017-07-29T09:41:42.838Z,23.30
2017-07-29T09:44:11.085Z,23.30
2017-07-29T09:46:40.113Z,23.60
2017-07-29T09:49:08.374Z,23.60
2017-07-29T09:51:36.720Z,23.70
2017-07-29T09:54:04.995Z,23.50
2017-07-29T09:56:33.234Z,23.30
2017-07-29T09:59:01.448Z,23.20
2017-07-29T10:01:29.710Z,23.30
2017-07-29T10:03:58.007Z,23.60
2017-07-29T10:06:26.718Z,23.70
2017-07-29T10:08:54.968Z,23.80
2017-07-29T10:11:23.253Z,24.10
2017-07-29T10:13:51.533Z,24.00
2017-07-29T10:16:19.816Z,24.30
2017-07-29T10:18:48.125Z,24.40
2017-07-29T10:21:16.378Z,23.90
2017-07-29T10:23:45.378Z,23.80
2017-07-29T10:26:13.634Z,23.70
2017-07-29T10:28:41.885Z,24.10
2017-07-29T10:31:10.115Z,24.30
2017-07-29T10:33:38.381Z,23.90
2017-07-29T10:36:07.374Z,23.90
2017-07-29T10:38:35.625Z,23.90
2017-07-29T10:41:03.861Z,24.20
2017-07-29T10:43:32.134Z,24.10
2017-07-29T10:46:00.351Z,24.20
2017-07-29T10:48:28.607Z,24.30
2017-07-29T10:50:56.991Z,24.50
2017-07-29T10:53:25.230Z,24.00
2017-07-29T10:55:53.490Z,24.20
2017-07-29T10:58:21.773Z,24.50
2017-07-29T11:00:50.788Z,24.50
2017-07-29T11:03:19.025Z,24.50
2017-07-29T11:05:48.033Z,24.90
2017-07-29T11:08:17.048Z,24.90
2017-07-29T11:10:45.334Z,24.90
2017-07-29T11:13:13.575Z,24.90
2017-07-29T11:15:42.620Z,24.80
2017-07-29T11:18:10.866Z,24.80
2017-07-29T11:20:39.181Z,24.80
2017-07-29T11:23:07.458Z,24.60
2017-07-29T11:25:35.702Z,24.40
2017-07-29T11:28:03.967Z,24.20
2017-07-29T11:30:32.974Z,23.90
2017-07-29T11:33:01.250Z,23.90
2017-07-29T11:35:29.527Z,24.10
2017-07-29T11:37:57.754Z,23.90
2017-07-29T11:40:26.041Z,24.10
2017-07-29T11:42:54.270Z,24.30
2017-07-29T11:45:22.543Z,24.50
2017-07-29T11:47:50.816Z,24.80
2017-07-29T11:50:19.047Z,25.30
2017-07-29T11:52:47.289Z,24.70
2017-07-29T11:55:15.529Z,24.80
2017-07-29T11:57:44.505Z,24.70
2017-07-29T12:00:13.657Z,24.70
2017-07-29T12:02:41.898Z,24.70
2017-07-29T12:05:10.155Z,24.80
2017-07-29T12:07:39.183Z,25.00
2017-07-29T12:10:07.609Z,24.90
2017-07-29T12:12:37.287Z,25.10
2017-07-29T12:15:05.583Z,25.00
2017-07-29T12:17:33.835Z,25.30
2017-07-29T12:20:02.083Z,25.30
2017-07-29T12:22:31.146Z,25.70
2017-07-29T12:24:59.388Z,25.60
2017-07-29T12:27:27.631Z,25.90
2017-07-29T12:29:56.642Z,25.40
2017-07-29T12:32:24.905Z,25.40
2017-07-29T12:34:53.898Z,25.50
2017-07-29T12:37:22.164Z,25.40
2017-07-29T12:39:50.414Z,25.40
2017-07-29T12:42:18.783Z,25.20
2017-07-29T12:44:47.039Z,25.40
2017-07-29T12:47:15.301Z,25.50
2017-07-29T12:49:43.546Z,25.20
2017-07-29T12:52:12.574Z,25.30
2017-07-29T12:54:40.852Z,25.30
2017-07-29T12:57:09.088Z,25.10
2017-07-29T12:59:37.334Z,25.10
2017-07-29T13:02:05.644Z,25.30
2017-07-29T13:04:33.903Z,25.80
2017-07-29T13:07:02.161Z,26.20
2017-07-29T13:09:30.395Z,26.50
2017-07-29T13:11:59.444Z,26.60
2017-07-29T13:14:27.698Z,26.60
2017-07-29T13:16:55.932Z,26.60
2017-07-29T13:19:24.944Z,25.70
2017-07-29T13:21:54.069Z,25.70
2017-07-29T13:24:22.359Z,25.50
2017-07-29T13:26:50.615Z,25.80
2017-07-29T13:29:18.880Z,25.70
2017-07-29T13:31:47.112Z,25.90
2017-07-29T13:34:15.369Z,26.40
2017-07-29T13:36:43.598Z,26.40
2017-07-29T13:39:12.634Z,26.20
2017-07-29T13:41:40.888Z,26.20
2017-07-29T13:44:09.146Z,26.50
2017-07-29T13:46:37.421Z,26.80
2017-07-29T13:49:06.434Z,27.20
2017-07-29T13:51:34.707Z,27.20
2017-07-29T13:54:02.962Z,26.90
2017-07-29T13:56:31.963Z,27.20
2017-07-29T13:59:00.964Z,26.70
2017-07-29T14:01:29.248Z,26.70
2017-07-29T14:03:57.497Z,26.90
2017-07-29T14:06:25.748Z,27.00
2017-07-29T14:08:53.979Z,27.10
2017-07-29T14:11:22.239Z,27.20
2017-07-29T14:13:51.265Z,26.90
2017-07-29T14:16:19.541Z,26.90
2017-07-29T14:18:47.797Z,26.40
2017-07-29T14:21:16.041Z,25.80
2017-07-29T14:23:44.290Z,25.60
2017-07-29T14:26:12.526Z,25.50
2017-07-29T14:28:41.542Z,25.60
2017-07-29T14:31:09.780Z,25.60
2017-07-29T14:33:38.049Z,25.40
2017-07-29T14:36:06.277Z,25.20
2017-07-29T14:38:34.544Z,25.20
2017-07-29T14:41:02.785Z,25.20
2017-07-29T14:43:31.818Z,24.80
2017-07-29T14:46:00.075Z,24.80
2017-07-29T14:48:36.288Z,24.90
2017-07-29T14:51:04.556Z,25.20
2017-07-29T14:53:33.828Z,25.60
2017-07-29T14:56:02.943Z,25.90
2017-07-29T14:58:31.187Z,26.40
2017-07-29T15:00:59.485Z,26.60
2017-07-29T15:03:27.711Z,26.80
2017-07-29T15:05:56.045Z,26.80
2017-07-29T15:08:24.273Z,26.80
2017-07-29T15:10:52.561Z,26.70
2017-07-29T15:13:21.577Z,26.20
2017-07-29T15:15:49.827Z,26.20
2017-07-29T15:18:18.894Z,26.50
2017-07-29T15:20:47.142Z,26.50
2017-07-29T15:23:15.414Z,26.30
2017-07-29T15:25:43.704Z,26.30
2017-07-29T15:28:12.000Z,26.30
2017-07-29T15:30:40.353Z,26.20
2017-07-29T15:33:08.623Z,26.10
2017-07-29T15:35:37.745Z,26.00
2017-07-29T15:38:06.024Z,26.00
2017-07-29T15:40:34.310Z,26.10
2017-07-29T15:43:02.565Z,26.20
2017-07-29T15:45:30.791Z,26.30
2017-07-29T15:47:59.876Z,26.60
2017-07-29T15:50:28.106Z,26.60
2017-07-29T15:52:56.366Z,26.80
2017-07-29T15:55:25.397Z,26.50
2017-07-29T15:57:53.630Z,26.40
2017-07-29T16:00:21.858Z,26.40
2017-07-29T16:02:50.150Z,26.50
2017-07-29T16:05:18.425Z,26.50
2017-07-29T16:07:46.681Z,26.50
2017-07-29T16:10:14.942Z,26.60
2017-07-29T16:12:43.182Z,26.60
2017-07-29T16:15:12.213Z,26.10
2017-07-29T16:17:40.476Z,26.10
2017-07-29T16:20:08.739Z,26.30
2017-07-29T16:22:37.004Z,26.40
2017-07-29T16:25:05.281Z,26.20
2017-07-29T16:27:33.484Z,25.60
2017-07-29T16:30:01.734Z,25.20
2017-07-29T16:32:30.774Z,25.00
2017-07-29T16:34:59.007Z,25.00
2017-07-29T16:37:28.042Z,25.10
2017-07-29T16:39:56.309Z,25.10
2017-07-29T16:42:24.552Z,24.90
2017-07-29T16:44:52.871Z,25.10
2017-07-29T16:47:21.115Z,25.30
2017-07-29T16:49:50.140Z,25.80
2017-07-29T16:52:18.504Z,25.80
2017-07-29T16:54:46.773Z,26.10
2017-07-29T16:57:15.894Z,26.20
2017-07-29T16:59:44.126Z,26.00
2017-07-29T17:02:12.386Z,26.20
2017-07-29T17:04:40.646Z,26.30
2017-07-29T17:07:08.905Z,26.20
2017-07-29T17:09:37.152Z,26.30
2017-07-29T17:12:06.148Z,26.20
2017-07-29T17:14:34.391Z,26.20
2017-07-29T17:17:03.904Z,26.10
2017-07-29T17:19:32.176Z,26.00
2017-07-29T17:22:00.421Z,26.00
2017-07-29T17:24:28.862Z,26.00
2017-07-29T17:26:57.855Z,25.90
2017-07-29T17:29:26.917Z,25.90
2017-07-29T17:31:55.159Z,25.90
2017-07-29T17:34:23.434Z,25.80
2017-07-29T17:36:51.698Z,25.80
2017-07-29T17:39:19.968Z,25.80
2017-07-29T17:41:49.021Z,26.00
2017-07-29T17:44:17.281Z,26.00
2017-07-29T17:46:45.532Z,26.10
2017-07-29T17:49:13.803Z,26.10
2017-07-29T17:51:42.051Z,25.90
2017-07-29T17:54:11.091Z,25.60
2017-07-29T17:56:39.975Z,25.60
2017-07-29T17:59:08.341Z,25.50
2017-07-29T18:01:36.667Z,25.40
2017-07-29T18:04:04.923Z,25.40
2017-07-29T18:06:33.172Z,25.40
2017-07-29T18:09:01.409Z,25.40
2017-07-29T18:11:29.689Z,25.40
2017-07-29T18:13:57.967Z,25.30
2017-07-29T18:16:28.337Z,25.40
2017-07-29T18:18:56.714Z,25.30
2017-07-29T18:21:24.979Z,25.20
2017-07-29T18:23:53.268Z,25.10
2017-07-29T18:26:21.564Z,25.00
2017-07-29T18:28:49.818Z,24.90
2017-07-29T18:31:18.810Z,24.90
2017-07-29T18:33:47.092Z,24.90
2017-07-29T18:36:15.845Z,24.90
2017-07-29T18:38:44.180Z,24.80
2017-07-29T18:41:12.431Z,24.70
2017-07-29T18:43:41.461Z,24.60
2017-07-29T18:46:09.707Z,24.50
2017-07-29T18:48:37.964Z,24.50
2017-07-29T18:51:06.995Z,24.50
2017-07-29T18:53:35.337Z,24.40
2017-07-29T18:56:04.389Z,24.30
2017-07-29T18:58:32.631Z,24.30
2017-07-29T19:01:01.670Z,24.20
2017-07-29T19:03:29.954Z,24.20
2017-07-29T19:05:58.244Z,24.10
2017-07-29T19:08:27.645Z,23.90
2017-07-29T19:10:56.010Z,23.90
2017-07-29T19:13:24.262Z,23.80
2017-07-29T19:15:52.644Z,23.80
2017-07-29T19:18:21.736Z,23.70
2017-07-29T19:20:49.999Z,23.70
2017-07-29T19:23:20.132Z,23.80
2017-07-29T19:25:48.404Z,23.80
2017-07-29T19:28:16.753Z,23.80
2017-07-29T19:30:45.008Z,23.70
2017-07-29T19:33:13.255Z,23.80
2017-07-29T19:35:41.496Z,23.70
2017-07-29T19:38:09.784Z,23.70
2017-07-29T19:40:38.812Z,23.50
2017-07-29T19:43:07.047Z,23.50
2017-07-29T19:45:35.343Z,23.40
2017-07-29T19:48:03.686Z,23.20
2017-07-29T19:50:32.701Z,23.10
2017-07-29T19:53:00.950Z,23.10
2017-07-29T19:55:29.959Z,23.00
2017-07-29T19:57:59.030Z,22.90
2017-07-29T20:00:28.452Z,22.80
2017-07-29T20:02:57.172Z,22.80
2017-07-29T20:05:25.426Z,22.70
2017-07-29T20:07:53.718Z,22.60
2017-07-29T20:10:21.960Z,22.50
2017-07-29T20:12:50.287Z,22.50
2017-07-29T20:15:18.544Z,22.70
2017-07-29T20:17:46.831Z,22.60
2017-07-29T20:20:16.513Z,22.70
2017-07-29T20:22:45.569Z,22.70
2017-07-29T20:25:13.905Z,22.70
2017-07-29T20:27:42.220Z,22.70
2017-07-29T20:30:10.508Z,22.80
2017-07-29T20:32:38.774Z,22.90
2017-07-29T20:35:07.052Z,22.90
2017-07-29T20:37:35.343Z,23.10
2017-07-29T20:40:03.645Z,23.20
2017-07-29T20:42:32.723Z,23.30
2017-07-29T20:45:00.981Z,23.30
2017-07-29T20:47:30.776Z,23.50
2017-07-29T20:49:59.065Z,23.50
2017-07-29T20:52:27.333Z,23.50
2017-07-29T20:54:55.566Z,23.60
2017-07-29T20:57:24.649Z,23.60
2017-07-29T20:59:52.907Z,23.50
2017-07-29T21:02:21.185Z,23.60
2017-07-29T21:04:49.433Z,23.60
2017-07-29T21:07:17.718Z,23.70
2017-07-29T21:09:46.053Z,23.70
2017-07-29T21:12:15.061Z,23.70
2017-07-29T21:14:43.348Z,23.70
2017-07-29T21:17:11.626Z,23.70
2017-07-29T21:19:39.894Z,23.80
2017-07-29T21:22:08.887Z,23.80
2017-07-29T21:24:37.190Z,23.80
2017-07-29T21:27:05.504Z,23.80
2017-07-29T21:29:34.565Z,23.80
2017-07-29T21:32:02.803Z,23.80
2017-07-29T21:34:31.863Z,23.80
2017-07-29T21:37:00.147Z,23.80
2017-07-29T21:39:28.462Z,23.80
2017-07-29T21:41:57.613Z,23.80
2017-07-29T21:44:25.888Z,23.80
2017-07-29T21:46:54.187Z,23.80
2017-07-29T21:49:22.449Z,23.80
2017-07-29T21:51:50.705Z,23.80
2017-07-29T21:54:19.035Z,23.80
2017-07-29T21:56:48.072Z,23.80
2017-07-29T21:59:16.552Z,23.80
2017-07-29T22:01:44.796Z,23.70
2017-07-29T22:04:13.064Z,23.70
2017-07-29T22:06:42.111Z,23.60
2017-07-29T22:09:10.408Z,23.60
2017-07-29T22:11:38.648Z,23.60
2017-07-29T22:14:06.889Z,23.60
2017-07-29T22:16:36.473Z,23.60
2017-07-29T22:19:04.696Z,23.60
2017-07-29T22:21:32.962Z,23.60
2017-07-29T22:24:01.207Z,23.60
2017-07-29T22:26:29.483Z,23.60
2017-07-29T22:28:57.724Z,23.60
2017-07-29T22:31:25.970Z,23.60
2017-07-29T22:33:55.011Z,23.60
2017-07-29T22:36:23.323Z,23.60
2017-07-29T22:38:51.549Z,23.60
2017-07-29T22:41:19.819Z,23.60
2017-07-29T22:43:48.031Z,23.50
2017-07-29T22:46:16.286Z,23.50
2017-07-29T22:48:44.572Z,23.50
2017-07-29T22:51:12.826Z,23.50
2017-07-29T22:53:41.108Z,23.50
2017-07-29T22:56:09.348Z,23.50
2017-07-29T22:58:38.360Z,23.60
2017-07-29T23:01:06.629Z,23.60
2017-07-29T23:03:35.672Z,23.50
2017-07-29T23:06:04.732Z,23.50
2017-07-29T23:08:32.988Z,23.50
2017-07-29T23:11:02.017Z,23.50
2017-07-29T23:13:30.233Z,23.40
2017-07-29T23:15:58.470Z,23.50
2017-07-29T23:18:26.718Z,23.40
2017-07-29T23:20:54.974Z,23.40
2017-07-29T23:23:23.237Z,23.40
2017-07-29T23:25:51.486Z,23.50
2017-07-29T23:28:19.741Z,23.50
2017-07-29T23:30:47.989Z,23.40
2017-07-29T23:33:16.237Z,23.40
2017-07-29T23:35:44.506Z,23.40
2017-07-29T23:38:12.804Z,23.40
2017-07-29T23:40:41.057Z,23.50
2017-07-29T23:43:09.382Z,23.40
2017-07-29T23:45:38.406Z,23.40
2017-07-29T23:48:06.689Z,23.30
2017-07-29T23:50:34.946Z,23.40
2017-07-29T23:53:03.222Z,23.40
2017-07-29T23:55:31.509Z,23.30
2017-07-29T23:58:00.485Z,23.30
